sensor_id;sensor_type;location;lat;lon;timestamp;pressure;altitude;pressure_sealevel;temperature;humidity
61113;BME280;47184;57.998;56.184;2023-11-22T04:15:18;98254.78;;;23.25;37.08
61113;BME280;47184;57.998;56.184;2023-11-22T04:17:44;98245.34;;;23.27;37.25
61113;BME280;47184;57.998;56.184;2023-11-22T04:20:11;98259.81;;;23.28;37.20
61113;BME280;47184;57.998;56.184;2023-11-22T04:22:41;98243.88;;;23.25;37.30
61113;BME280;47184;57.998;56.184;2023-11-22T04:25:07;98242.16;;;23.24;37.35
61113;BME280;47184;57.998;56.184;2023-11-22T04:27:39;98237.97;;;23.28;37.55
61113;BME280;47184;57.998;56.184;2023-11-22T04:30:07;98236.28;;;23.27;37.42
61113;BME280;47184;57.998;56.184;2023-11-22T04:32:40;98194.53;;;23.06;37.71
61113;BME280;47184;57.998;56.184;2023-11-22T04:35:08;98237.97;;;23.28;37.98
61113;BME280;47184;57.998;56.184;2023-11-22T04:37:37;98230.22;;;23.25;38.03
61113;BME280;47184;57.998;56.184;2023-11-22T04:40:04;98234.19;;;23.29;37.86
61113;BME280;47184;57.998;56.184;2023-11-22T04:42:35;98219.91;;;23.27;37.75
61113;BME280;47184;57.998;56.184;2023-11-22T04:45:03;98215.69;;;23.31;37.59
61113;BME280;47184;57.998;56.184;2023-11-22T04:47:29;98210.44;;;23.36;37.81
61113;BME280;47184;57.998;56.184;2023-11-22T04:49:55;98220.50;;;23.42;37.49
61113;BME280;47184;57.998;56.184;2023-11-22T04:52:21;98219.47;;;23.43;37.42
61113;BME280;47184;57.998;56.184;2023-11-22T04:54:47;98206.84;;;23.42;37.63
61113;BME280;47184;57.998;56.184;2023-11-22T04:57:13;98202.66;;;23.40;37.68
61113;BME280;47184;57.998;56.184;2023-11-22T04:59:39;98211.03;;;23.45;37.76
61113;BME280;47184;57.998;56.184;2023-11-22T05:02:06;98214.41;;;23.47;37.48
61113;BME280;47184;57.998;56.184;2023-11-22T05:04:33;98201.38;;;23.42;38.01
61113;BME280;47184;57.998;56.184;2023-11-22T05:06:59;98217.34;;;23.45;37.68
61113;BME280;47184;57.998;56.184;2023-11-22T05:09:26;98214.22;;;23.48;37.49
61113;BME280;47184;57.998;56.184;2023-11-22T05:11:52;98204.94;;;23.43;37.64
61113;BME280;47184;57.998;56.184;2023-11-22T05:14:18;98208.13;;;23.46;37.38
61113;BME280;47184;57.998;56.184;2023-11-22T05:16:44;98208.53;;;23.43;37.43
61113;BME280;47184;57.998;56.184;2023-11-22T05:19:10;98203.09;;;23.43;37.42
61113;BME280;47184;57.998;56.184;2023-11-22T05:21:36;98208.94;;;23.47;38.20
61113;BME280;47184;57.998;56.184;2023-11-22T05:24:02;98198.22;;;23.45;37.68
61113;BME280;47184;57.998;56.184;2023-11-22T05:26:28;98206.41;;;23.45;38.02
61113;BME280;47184;57.998;56.184;2023-11-22T05:28:54;98195.91;;;23.42;38.08
61113;BME280;47184;57.998;56.184;2023-11-22T05:31:20;98181.88;;;23.32;38.42
61113;BME280;47184;57.998;56.184;2023-11-22T05:33:46;98189.81;;;23.40;38.11
61113;BME280;47184;57.998;56.184;2023-11-22T05:36:12;98183.78;;;23.38;38.43
61113;BME280;47184;57.998;56.184;2023-11-22T05:38:39;98173.28;;;23.35;38.55
61113;BME280;47184;57.998;56.184;2023-11-22T05:41:05;98162.78;;;23.25;38.06
61113;BME280;47184;57.998;56.184;2023-11-22T05:43:31;98178.31;;;23.38;38.56
61113;BME280;47184;57.998;56.184;2023-11-22T05:45:57;98181.47;;;23.35;38.35
61113;BME280;47184;57.998;56.184;2023-11-22T05:48:23;98178.75;;;23.35;38.45
61113;BME280;47184;57.998;56.184;2023-11-22T05:50:49;98174.94;;;23.36;38.44
61113;BME280;47184;57.998;56.184;2023-11-22T05:53:15;98172.84;;;23.38;38.13
61113;BME280;47184;57.998;56.184;2023-11-22T05:55:48;98166.50;;;23.38;38.01
61113;BME280;47184;57.998;56.184;2023-11-22T05:58:15;98168.22;;;23.39;37.95
61113;BME280;47184;57.998;56.184;2023-11-22T06:00:45;98172.41;;;23.41;37.90
61113;BME280;47184;57.998;56.184;2023-11-22T06:03:13;98170.31;;;23.43;38.03
61113;BME280;47184;57.998;56.184;2023-11-22T06:05:39;98165.69;;;23.37;37.98
61113;BME280;47184;57.998;56.184;2023-11-22T06:08:06;98179.53;;;23.42;38.13
61113;BME280;47184;57.998;56.184;2023-11-22T06:10:32;98175.78;;;23.43;38.10
61113;BME280;47184;57.998;56.184;2023-11-22T06:12:59;98167.97;;;23.40;37.98
61113;BME280;47184;57.998;56.184;2023-11-22T06:15:25;98176.38;;;23.45;37.92
61113;BME280;47184;57.998;56.184;2023-11-22T06:17:51;98180.81;;;23.46;37.87
61113;BME280;47184;57.998;56.184;2023-11-22T06:20:17;98170.31;;;23.43;38.04
61113;BME280;47184;57.998;56.184;2023-11-22T06:22:43;98176.13;;;23.53;38.37
61113;BME280;47184;57.998;56.184;2023-11-22T06:25:10;98163.53;;;23.52;38.14
61113;BME280;47184;57.998;56.184;2023-11-22T06:27:37;98145.47;;;23.51;38.22
61113;BME280;47184;57.998;56.184;2023-11-22T06:30:03;98158.06;;;23.52;38.00
61113;BME280;47184;57.998;56.184;2023-11-22T06:32:30;98162.06;;;23.57;38.09
61113;BME280;47184;57.998;56.184;2023-11-22T06:34:56;98156.38;;;23.58;38.92
61113;BME280;47184;57.998;56.184;2023-11-22T06:37:22;98148.81;;;23.53;38.53
61113;BME280;47184;57.998;56.184;2023-11-22T06:39:48;98160.81;;;23.52;37.98
61113;BME280;47184;57.998;56.184;2023-11-22T06:42:14;98155.97;;;23.55;38.51
61113;BME280;47184;57.998;56.184;2023-11-22T06:44:40;98143.59;;;23.45;38.37
61113;BME280;47184;57.998;56.184;2023-11-22T06:47:06;98157.19;;;23.59;38.62
61113;BME280;47184;57.998;56.184;2023-11-22T06:49:33;98123.88;;;23.43;38.65
61113;BME280;47184;57.998;56.184;2023-11-22T06:52:00;98143.78;;;23.50;38.39
61113;BME280;47184;57.998;56.184;2023-11-22T06:54:26;98147.59;;;23.49;38.28
61113;BME280;47184;57.998;56.184;2023-11-22T06:56:52;98140.47;;;23.48;38.44
61113;BME280;47184;57.998;56.184;2023-11-22T06:59:19;98138.75;;;23.47;38.45
61113;BME280;47184;57.998;56.184;2023-11-22T07:01:44;98132.84;;;23.50;38.60
61113;BME280;47184;57.998;56.184;2023-11-22T07:04:11;98119.44;;;23.49;38.50
61113;BME280;47184;57.998;56.184;2023-11-22T07:06:37;98136.22;;;23.52;38.25
61113;BME280;47184;57.998;56.184;2023-11-22T07:09:04;98125.28;;;23.52;38.57
61113;BME280;47184;57.998;56.184;2023-11-22T07:11:30;98121.50;;;23.53;38.57
61113;BME280;47184;57.998;56.184;2023-11-22T07:13:57;98117.50;;;23.56;38.85
61113;BME280;47184;57.998;56.184;2023-11-22T07:16:23;98126.56;;;23.57;38.44
61113;BME280;47184;57.998;56.184;2023-11-22T07:18:50;98119.84;;;23.52;38.64
61113;BME280;47184;57.998;56.184;2023-11-22T07:21:16;98105.97;;;23.47;38.46
61113;BME280;47184;57.998;56.184;2023-11-22T07:23:47;98110.41;;;23.48;38.56
61113;BME280;47184;57.998;56.184;2023-11-22T07:26:13;98100.53;;;23.47;38.56
61113;BME280;47184;57.998;56.184;2023-11-22T07:28:40;98072.03;;;23.23;38.52
61113;BME280;47184;57.998;56.184;2023-11-22T07:31:09;98102.63;;;23.45;38.58
61113;BME280;47184;57.998;56.184;2023-11-22T07:33:35;98090.03;;;23.44;38.42
61113;BME280;47184;57.998;56.184;2023-11-22T07:36:01;98095.50;;;23.44;38.56
61113;BME280;47184;57.998;56.184;2023-11-22T07:38:28;98082.47;;;23.40;38.41
61113;BME280;47184;57.998;56.184;2023-11-22T07:40:58;98064.25;;;23.27;38.20
61113;BME280;47184;57.998;56.184;2023-11-22T07:43:24;98092.56;;;23.39;38.37
61113;BME280;47184;57.998;56.184;2023-11-22T07:45:50;98085.44;;;23.38;38.31
61113;BME280;47184;57.998;56.184;2023-11-22T07:48:17;98068.44;;;23.36;38.30
61113;BME280;47184;57.998;56.184;2023-11-22T07:50:43;98077.06;;;23.33;38.46
61113;BME280;47184;57.998;56.184;2023-11-22T07:53:12;98070.28;;;23.42;38.41
61113;BME280;47184;57.998;56.184;2023-11-22T07:55:40;98051.41;;;23.34;38.61
61113;BME280;47184;57.998;56.184;2023-11-22T07:58:07;98064.63;;;23.37;38.72
61113;BME280;47184;57.998;56.184;2023-11-22T08:00:34;98061.06;;;23.37;38.50
61113;BME280;47184;57.998;56.184;2023-11-22T08:03:01;98028.41;;;23.17;38.47
61113;BME280;47184;57.998;56.184;2023-11-22T08:05:31;98047.66;;;23.35;38.43
61113;BME280;47184;57.998;56.184;2023-11-22T08:08:03;98052.47;;;23.33;38.77
61113;BME280;47184;57.998;56.184;2023-11-22T08:10:36;98050.16;;;23.37;38.96
61113;BME280;47184;57.998;56.184;2023-11-22T08:13:03;98048.88;;;23.39;38.84
61113;BME280;47184;57.998;56.184;2023-11-22T08:15:29;98043.41;;;23.39;38.67
61113;BME280;47184;57.998;56.184;2023-11-22T08:17:58;98043.81;;;23.43;38.58
61113;BME280;47184;57.998;56.184;2023-11-22T08:20:26;98049.06;;;23.44;38.75
61113;BME280;47184;57.998;56.184;2023-11-22T08:22:52;98048.44;;;23.42;38.79
61113;BME280;47184;57.998;56.184;2023-11-22T08:25:18;98038.75;;;23.46;38.87
61113;BME280;47184;57.998;56.184;2023-11-22T08:27:44;98033.31;;;23.46;39.02
61113;BME280;47184;57.998;56.184;2023-11-22T08:30:10;98034.97;;;23.47;38.85
61113;BME280;47184;57.998;56.184;2023-11-22T08:32:42;98029.50;;;23.47;38.89
61113;BME280;47184;57.998;56.184;2023-11-22T08:35:09;98018.38;;;23.49;38.91
61113;BME280;47184;57.998;56.184;2023-11-22T08:37:36;98004.47;;;23.50;38.90
61113;BME280;47184;57.998;56.184;2023-11-22T08:40:07;98000.97;;;23.43;38.90
61113;BME280;47184;57.998;56.184;2023-11-22T08:42:34;97997.56;;;23.48;39.09
61113;BME280;47184;57.998;56.184;2023-11-22T08:45:04;97995.06;;;23.46;38.84
61113;BME280;47184;57.998;56.184;2023-11-22T08:47:31;97984.13;;;23.46;38.96
61113;BME280;47184;57.998;56.184;2023-11-22T08:49:57;97983.06;;;23.47;39.42
61113;BME280;47184;57.998;56.184;2023-11-22T08:52:24;97943.53;;;23.18;39.32
61113;BME280;47184;57.998;56.184;2023-11-22T08:54:50;97977.06;;;23.32;39.04
61113;BME280;47184;57.998;56.184;2023-11-22T08:57:18;97969.94;;;23.24;39.08
61113;BME280;47184;57.998;56.184;2023-11-22T08:59:44;97968.69;;;23.27;38.83
61113;BME280;47184;57.998;56.184;2023-11-22T09:02:10;97965.34;;;23.25;38.85
61113;BME280;47184;57.998;56.184;2023-11-22T09:04:38;97973.31;;;23.26;38.90
61113;BME280;47184;57.998;56.184;2023-11-22T09:07:07;97967.00;;;23.26;38.87
61113;BME280;47184;57.998;56.184;2023-11-22T09:09:33;97971.25;;;23.22;38.52
61113;BME280;47184;57.998;56.184;2023-11-22T09:12:00;97969.56;;;23.21;38.43
61113;BME280;47184;57.998;56.184;2023-11-22T09:14:26;97964.94;;;23.21;38.79
61113;BME280;47184;57.998;56.184;2023-11-22T09:16:53;97963.25;;;23.20;38.46
61113;BME280;47184;57.998;56.184;2023-11-22T09:19:23;97959.72;;;23.20;38.44
61113;BME280;47184;57.998;56.184;2023-11-22T09:21:51;97954.88;;;23.22;38.46
61113;BME280;47184;57.998;56.184;2023-11-22T09:24:17;97948.16;;;23.18;38.42
61113;BME280;47184;57.998;56.184;2023-11-22T09:26:43;97947.72;;;23.21;38.14
61113;BME280;47184;57.998;56.184;2023-11-22T09:29:12;97951.28;;;23.21;38.39
61113;BME280;47184;57.998;56.184;2023-11-22T09:31:40;97917.75;;;23.07;38.45
61113;BME280;47184;57.998;56.184;2023-11-22T09:34:09;97943.50;;;23.25;38.12
61113;BME280;47184;57.998;56.184;2023-11-22T09:36:35;97941.81;;;23.24;38.21
61113;BME280;47184;57.998;56.184;2023-11-22T09:39:02;97935.31;;;23.25;37.98
61113;BME280;47184;57.998;56.184;2023-11-22T09:41:37;97940.97;;;23.23;38.06
61113;BME280;47184;57.998;56.184;2023-11-22T09:44:03;97926.31;;;23.18;38.10
61113;BME280;47184;57.998;56.184;2023-11-22T09:46:30;97940.16;;;23.23;37.79
61113;BME280;47184;57.998;56.184;2023-11-22T09:49:00;97939.53;;;23.21;37.95
61113;BME280;47184;57.998;56.184;2023-11-22T09:51:32;97934.69;;;23.23;37.96
61113;BME280;47184;57.998;56.184;2023-11-22T09:53:59;97928.41;;;23.16;38.02
61113;BME280;47184;57.998;56.184;2023-11-22T09:56:30;97893.25;;;23.01;37.75
61113;BME280;47184;57.998;56.184;2023-11-22T09:58:59;97926.94;;;23.20;37.85
61113;BME280;47184;57.998;56.184;2023-11-22T10:01:30;97907.22;;;23.18;37.65
61113;BME280;47184;57.998;56.184;2023-11-22T10:03:59;97927.97;;;23.19;37.93
61113;BME280;47184;57.998;56.184;2023-11-22T10:06:25;97911.84;;;23.17;37.55
61113;BME280;47184;57.998;56.184;2023-11-22T10:08:52;97907.84;;;23.13;37.77
61113;BME280;47184;57.998;56.184;2023-11-22T10:11:19;97913.72;;;23.17;37.57
61113;BME280;47184;57.998;56.184;2023-11-22T10:13:50;97913.72;;;23.17;37.64
61113;BME280;47184;57.998;56.184;2023-11-22T10:16:17;97919.41;;;23.15;37.68
61113;BME280;47184;57.998;56.184;2023-11-22T10:18:47;97915.84;;;23.15;37.80
61113;BME280;47184;57.998;56.184;2023-11-22T10:21:26;97914.78;;;23.16;37.64
61113;BME280;47184;57.998;56.184;2023-11-22T10:23:59;97902.63;;;23.12;37.67
61113;BME280;47184;57.998;56.184;2023-11-22T10:26:28;97911.41;;;23.14;37.65
61113;BME280;47184;57.998;56.184;2023-11-22T10:28:54;97910.81;;;23.12;37.44
61113;BME280;47184;57.998;56.184;2023-11-22T10:31:22;97905.97;;;23.14;37.70
61113;BME280;47184;57.998;56.184;2023-11-22T10:33:49;97914.34;;;23.19;37.73
61113;BME280;47184;57.998;56.184;2023-11-22T10:36:15;97911.59;;;23.19;37.53
61113;BME280;47184;57.998;56.184;2023-11-22T10:38:46;97900.50;;;23.14;37.52
61113;BME280;47184;57.998;56.184;2023-11-22T10:41:12;97895.47;;;23.11;37.53
61113;BME280;47184;57.998;56.184;2023-11-22T10:43:41;97878.91;;;23.05;37.46
61113;BME280;47184;57.998;56.184;2023-11-22T10:46:12;97894.00;;;23.15;37.36
61113;BME280;47184;57.998;56.184;2023-11-22T10:48:39;97885.19;;;23.13;37.38
61113;BME280;47184;57.998;56.184;2023-11-22T10:51:05;97881.38;;;23.14;37.43
61113;BME280;47184;57.998;56.184;2023-11-22T10:53:44;97863.44;;;22.99;37.28
61113;BME280;47184;57.998;56.184;2023-11-22T10:56:16;97891.03;;;23.16;37.23
61113;BME280;47184;57.998;56.184;2023-11-22T10:58:51;97888.53;;;23.15;37.21
61113;BME280;47184;57.998;56.184;2023-11-22T11:01:21;97860.00;;;23.11;37.07
61113;BME280;47184;57.998;56.184;2023-11-22T11:03:56;97885.72;;;23.28;37.37
61113;BME280;47184;57.998;56.184;2023-11-22T11:06:31;97886.94;;;23.32;37.31
61113;BME280;47184;57.998;56.184;2023-11-22T11:09:03;97837.94;;;23.12;37.63
61113;BME280;47184;57.998;56.184;2023-11-22T11:11:37;97841.50;;;23.13;37.84
61113;BME280;47184;57.998;56.184;2023-11-22T11:14:06;97874.09;;;23.39;38.03
61113;BME280;47184;57.998;56.184;2023-11-22T11:16:37;97879.09;;;23.42;37.52
61113;BME280;47184;57.998;56.184;2023-11-22T11:19:04;97885.38;;;23.43;37.70
61113;BME280;47184;57.998;56.184;2023-11-22T11:21:33;97872.25;;;23.33;37.64
61113;BME280;47184;57.998;56.184;2023-11-22T11:23:59;97879.09;;;23.42;38.00
61113;BME280;47184;57.998;56.184;2023-11-22T11:26:31;97856.13;;;23.25;37.67
61113;BME280;47184;57.998;56.184;2023-11-22T11:28:58;97878.66;;;23.45;37.81
61113;BME280;47184;57.998;56.184;2023-11-22T11:31:24;97873.19;;;23.45;37.97
61113;BME280;47184;57.998;56.184;2023-11-22T11:33:57;97875.06;;;23.51;37.50
61113;BME280;47184;57.998;56.184;2023-11-22T11:36:31;97870.19;;;23.53;37.46
61113;BME280;47184;57.998;56.184;2023-11-22T11:39:03;97871.88;;;23.55;37.52
61113;BME280;47184;57.998;56.184;2023-11-22T11:41:32;97876.88;;;23.58;37.28
61113;BME280;47184;57.998;56.184;2023-11-22T11:44:01;97872.91;;;23.53;37.29
61113;BME280;47184;57.998;56.184;2023-11-22T11:46:29;97870.59;;;23.57;37.49
61113;BME280;47184;57.998;56.184;2023-11-22T11:48:55;97877.50;;;23.60;37.24
61113;BME280;47184;57.998;56.184;2023-11-22T11:51:26;97855.13;;;23.44;37.58
61113;BME280;47184;57.998;56.184;2023-11-22T11:53:53;97873.53;;;23.56;37.38
61113;BME280;47184;57.998;56.184;2023-11-22T11:56:20;97867.63;;;23.59;37.26
61113;BME280;47184;57.998;56.184;2023-11-22T11:58:48;97880.69;;;23.57;37.32
61113;BME280;47184;57.998;56.184;2023-11-22T12:01:16;97873.53;;;23.56;37.27
61113;BME280;47184;57.998;56.184;2023-11-22T12:03:46;97874.16;;;23.58;37.38
61113;BME280;47184;57.998;56.184;2023-11-22T12:06:16;97861.84;;;23.48;37.22
61113;BME280;47184;57.998;56.184;2023-11-22T12:08:43;97853.78;;;23.53;37.11
61113;BME280;47184;57.998;56.184;2023-11-22T12:11:09;97818.25;;;23.35;37.07
61113;BME280;47184;57.998;56.184;2023-11-22T12:13:37;97866.84;;;23.51;37.36
61113;BME280;47184;57.998;56.184;2023-11-22T12:16:15;97859.94;;;23.49;37.22
61113;BME280;47184;57.998;56.184;2023-11-22T12:18:44;97863.50;;;23.49;37.04
61113;BME280;47184;57.998;56.184;2023-11-22T12:21:11;97858.50;;;23.46;37.14
61113;BME280;47184;57.998;56.184;2023-11-22T12:23:41;97860.16;;;23.47;37.04
61113;BME280;47184;57.998;56.184;2023-11-22T12:26:19;97849.69;;;23.44;37.28
61113;BME280;47184;57.998;56.184;2023-11-22T12:28:48;97875.63;;;23.53;37.17
61113;BME280;47184;57.998;56.184;2023-11-22T12:31:15;97853.81;;;22.90;35.35
61113;BME280;47184;57.998;56.184;2023-11-22T12:33:42;97864.97;;;22.37;35.48
61113;BME280;47184;57.998;56.184;2023-11-22T12:36:09;97865.41;;;22.27;35.04
61113;BME280;47184;57.998;56.184;2023-11-22T12:38:36;97843.44;;;22.60;36.08
61113;BME280;47184;57.998;56.184;2023-11-22T12:41:02;97861.72;;;23.05;36.35
61113;BME280;47184;57.998;56.184;2023-11-22T12:43:33;97843.34;;;23.19;35.97
61113;BME280;47184;57.998;56.184;2023-11-22T12:46:05;97814.47;;;23.04;35.84
61113;BME280;47184;57.998;56.184;2023-11-22T12:48:39;97847.16;;;23.18;35.78
61113;BME280;47184;57.998;56.184;2023-11-22T12:51:16;97851.44;;;23.32;35.81
61113;BME280;47184;57.998;56.184;2023-11-22T12:53:45;97819.84;;;23.18;35.65
61113;BME280;47184;57.998;56.184;2023-11-22T12:56:15;97858.53;;;23.40;35.69
61113;BME280;47184;57.998;56.184;2023-11-22T12:58:41;97852.22;;;23.39;35.62
61113;BME280;47184;57.998;56.184;2023-11-22T13:01:07;97849.56;;;23.33;35.70
61113;BME280;47184;57.998;56.184;2023-11-22T13:03:33;97856.03;;;23.38;35.79
61113;BME280;47184;57.998;56.184;2023-11-22T13:05:59;97853.75;;;23.35;35.69
61113;BME280;47184;57.998;56.184;2023-11-22T13:08:54;97848.88;;;23.37;35.65
61113;BME280;47184;57.998;56.184;2023-11-22T13:11:20;97865.28;;;23.37;35.62
61113;BME280;47184;57.998;56.184;2023-11-22T13:13:46;97832.00;;;23.22;35.49
61113;BME280;47184;57.998;56.184;2023-11-22T13:16:12;97845.22;;;23.25;35.45
61113;BME280;47184;57.998;56.184;2023-11-22T13:18:39;97853.13;;;23.33;35.62
61113;BME280;47184;57.998;56.184;2023-11-22T13:21:06;97858.59;;;23.33;35.65
61113;BME280;47184;57.998;56.184;2023-11-22T13:23:32;97855.69;;;23.28;35.54
61113;BME280;47184;57.998;56.184;2023-11-22T13:25:58;97832.22;;;23.20;35.85
61113;BME280;47184;57.998;56.184;2023-11-22T13:28:24;97849.16;;;23.29;35.56
61113;BME280;47184;57.998;56.184;2023-11-22T13:30:51;97814.28;;;23.06;35.39
61113;BME280;47184;57.998;56.184;2023-11-22T13:33:17;97833.66;;;23.23;35.38
61113;BME280;47184;57.998;56.184;2023-11-22T13:35:44;97835.16;;;23.19;35.59
61113;BME280;47184;57.998;56.184;2023-11-22T13:38:10;97834.13;;;23.20;35.51
61113;BME280;47184;57.998;56.184;2023-11-22T13:40:37;97833.53;;;23.11;35.54
61113;BME280;47184;57.998;56.184;2023-11-22T13:43:05;97832.66;;;23.17;35.48
61113;BME280;47184;57.998;56.184;2023-11-22T13:45:32;97820.06;;;23.16;35.52
61113;BME280;47184;57.998;56.184;2023-11-22T13:47:59;97820.28;;;23.15;35.31
61113;BME280;47184;57.998;56.184;2023-11-22T13:50:30;97823.66;;;23.17;35.65
61113;BME280;47184;57.998;56.184;2023-11-22T13:52:56;97824.69;;;23.16;35.30
61113;BME280;47184;57.998;56.184;2023-11-22T13:55:23;97821.94;;;23.16;35.33
61113;BME280;47184;57.998;56.184;2023-11-22T13:57:53;97821.13;;;23.15;35.25
61113;BME280;47184;57.998;56.184;2023-11-22T14:00:26;97821.78;;;23.11;35.42
61113;BME280;47184;57.998;56.184;2023-11-22T14:02:56;97818.84;;;23.12;35.03
61113;BME280;47184;57.998;56.184;2023-11-22T14:05:23;97827.59;;;23.21;35.29
61113;BME280;47184;57.998;56.184;2023-11-22T14:07:49;97820.47;;;23.20;35.13
61113;BME280;47184;57.998;56.184;2023-11-22T14:10:18;97821.69;;;23.24;34.88
61113;BME280;47184;57.998;56.184;2023-11-22T14:12:44;97825.84;;;23.26;34.91
61113;BME280;47184;57.998;56.184;2023-11-22T14:15:11;97821.22;;;23.27;34.82
61113;BME280;47184;57.998;56.184;2023-11-22T14:17:38;97820.19;;;23.28;34.88
61113;BME280;47184;57.998;56.184;2023-11-22T14:20:15;97822.91;;;23.28;34.90
61113;BME280;47184;57.998;56.184;2023-11-22T14:22:42;97824.59;;;23.29;34.88
61113;BME280;47184;57.998;56.184;2023-11-22T14:25:11;97810.31;;;23.27;35.00
61113;BME280;47184;57.998;56.184;2023-11-22T14:27:39;97824.59;;;23.29;34.68
61113;BME280;47184;57.998;56.184;2023-11-22T14:30:06;97832.56;;;23.30;34.74
61113;BME280;47184;57.998;56.184;2023-11-22T14:32:34;97831.13;;;23.28;34.86
61113;BME280;47184;57.998;56.184;2023-11-22T14:35:02;97807.44;;;23.22;34.57
61113;BME280;47184;57.998;56.184;2023-11-22T14:37:29;97814.09;;;23.26;34.46
61113;BME280;47184;57.998;56.184;2023-11-22T14:39:56;97808.31;;;23.16;34.74
61113;BME280;47184;57.998;56.184;2023-11-22T14:42:23;97831.78;;;23.23;34.51
61113;BME280;47184;57.998;56.184;2023-11-22T14:44:52;97818.78;;;23.19;34.64
61113;BME280;47184;57.998;56.184;2023-11-22T14:47:20;97815.47;;;23.17;34.70
61113;BME280;47184;57.998;56.184;2023-11-22T14:49:50;97809.81;;;23.12;34.50
61113;BME280;47184;57.998;56.184;2023-11-22T14:52:16;97812.94;;;23.15;34.46
61113;BME280;47184;57.998;56.184;2023-11-22T14:54:43;97819.22;;;23.16;34.60
61113;BME280;47184;57.998;56.184;2023-11-22T14:57:11;97814.84;;;23.15;34.32
61113;BME280;47184;57.998;56.184;2023-11-22T14:59:39;97808.31;;;23.16;34.56
61113;BME280;47184;57.998;56.184;2023-11-22T15:02:05;97815.00;;;23.20;34.51
61113;BME280;47184;57.998;56.184;2023-11-22T15:04:34;97807.44;;;23.22;34.58
61113;BME280;47184;57.998;56.184;2023-11-22T15:07:05;97799.50;;;23.14;34.81
61113;BME280;47184;57.998;56.184;2023-11-22T15:09:32;97814.28;;;23.06;33.42
61113;BME280;47184;57.998;56.184;2023-11-22T15:11:59;97822.06;;;22.57;33.23
61113;BME280;47184;57.998;56.184;2023-11-22T15:14:28;97819.69;;;22.23;33.30
61113;BME280;47184;57.998;56.184;2023-11-22T15:16:54;97821.16;;;22.12;32.61
61113;BME280;47184;57.998;56.184;2023-11-22T15:19:20;97813.03;;;21.98;32.71
61113;BME280;47184;57.998;56.184;2023-11-22T15:21:50;97810.09;;;21.93;32.38
61113;BME280;47184;57.998;56.184;2023-11-22T15:24:19;97814.34;;;21.89;32.06
61113;BME280;47184;57.998;56.184;2023-11-22T15:26:45;97811.59;;;21.83;31.50
61113;BME280;47184;57.998;56.184;2023-11-22T15:29:12;97813.28;;;21.84;31.48
61113;BME280;47184;57.998;56.184;2023-11-22T15:31:41;97810.16;;;21.73;31.09
61113;BME280;47184;57.998;56.184;2023-11-22T15:34:10;97805.56;;;21.67;30.79
61113;BME280;47184;57.998;56.184;2023-11-22T15:36:42;97797.63;;;21.52;30.70
61113;BME280;47184;57.998;56.184;2023-11-22T15:39:08;97800.75;;;21.56;30.12
61113;BME280;47184;57.998;56.184;2023-11-22T15:41:38;97790.09;;;21.48;30.31
61113;BME280;47184;57.998;56.184;2023-11-22T15:44:05;97802.66;;;21.42;29.75
61113;BME280;47184;57.998;56.184;2023-11-22T15:46:31;97780.44;;;21.65;30.61
61113;BME280;47184;57.998;56.184;2023-11-22T15:48:57;97801.69;;;22.08;30.63
61113;BME280;47184;57.998;56.184;2023-11-22T15:51:23;97796.81;;;22.37;31.17
61113;BME280;47184;57.998;56.184;2023-11-22T15:53:50;97796.06;;;22.55;31.31
61113;BME280;47184;57.998;56.184;2023-11-22T15:56:16;97801.25;;;22.70;31.48
61113;BME280;47184;57.998;56.184;2023-11-22T15:58:43;97789.88;;;22.73;31.30
61113;BME280;47184;57.998;56.184;2023-11-22T16:01:10;97801.38;;;22.81;31.48
61113;BME280;47184;57.998;56.184;2023-11-22T16:03:37;97768.25;;;22.71;31.82
61113;BME280;47184;57.998;56.184;2023-11-22T16:06:05;97789.59;;;22.88;31.90
61113;BME280;47184;57.998;56.184;2023-11-22T16:08:31;97790.88;;;22.85;31.97
61113;BME280;47184;57.998;56.184;2023-11-22T16:10:58;97783.28;;;22.87;32.23
61113;BME280;47184;57.998;56.184;2023-11-22T16:13:24;97794.16;;;22.94;32.17
61113;BME280;47184;57.998;56.184;2023-11-22T16:15:52;97795.00;;;22.94;32.10
61113;BME280;47184;57.998;56.184;2023-11-22T16:18:19;97796.69;;;22.95;32.57
61113;BME280;47184;57.998;56.184;2023-11-22T16:21:00;97796.69;;;22.95;32.88
61113;BME280;47184;57.998;56.184;2023-11-22T16:23:26;97791.19;;;23.02;33.15
61113;BME280;47184;57.998;56.184;2023-11-22T16:25:52;97768.59;;;22.88;33.42
61113;BME280;47184;57.998;56.184;2023-11-22T16:28:18;97786.75;;;23.07;33.43
61113;BME280;47184;57.998;56.184;2023-11-22T16:30:44;97779.38;;;23.08;33.84
61113;BME280;47184;57.998;56.184;2023-11-22T16:33:13;97781.44;;;23.13;33.79
61113;BME280;47184;57.998;56.184;2023-11-22T16:35:39;97783.56;;;23.11;33.76
61113;BME280;47184;57.998;56.184;2023-11-22T16:38:05;97780.16;;;23.15;34.35
61113;BME280;47184;57.998;56.184;2023-11-22T16:40:32;97777.22;;;23.17;34.49
61113;BME280;47184;57.998;56.184;2023-11-22T16:42:59;97765.53;;;23.10;34.61
61113;BME280;47184;57.998;56.184;2023-11-22T16:45:25;97783.53;;;23.17;34.58
61113;BME280;47184;57.998;56.184;2023-11-22T16:47:51;97775.09;;;23.19;34.68
61113;BME280;47184;57.998;56.184;2023-11-22T16:50:27;97770.09;;;23.16;34.73
61113;BME280;47184;57.998;56.184;2023-11-22T16:52:54;97762.50;;;23.18;34.89
61113;BME280;47184;57.998;56.184;2023-11-22T16:55:20;97774.69;;;23.22;35.41
61113;BME280;47184;57.998;56.184;2023-11-22T16:57:46;97768.75;;;23.25;35.59
61113;BME280;47184;57.998;56.184;2023-11-22T17:00:12;97767.97;;;23.18;36.23
61113;BME280;47184;57.998;56.184;2023-11-22T17:02:46;97753.97;;;23.07;35.77
61113;BME280;47184;57.998;56.184;2023-11-22T17:05:18;97759.31;;;22.96;35.39
61113;BME280;47184;57.998;56.184;2023-11-22T17:07:45;97758.69;;;22.94;35.39